GZOLA EGLA-EGBP

Flight info

Callsign GZOLA
Flight time 1h 10m
Altitude 7000
Route DCT EXMOR DCT ACKEC DCT
Aircraft DA42/L-V/N

Departure

Time 2026-04-26 15:06
Airport Bodmin Airfield (EGLA)

Arrival

Time 2026-04-26 16:16
Airport Cotswold Airport (EGBP)
Time Latitude Longitude Altitude Speed Heading
2026-04-26 14:53 50.50004 -4.66486 648 ft 0 kts 201°
2026-04-26 15:01 50.50002 -4.66487 652 ft 2 kts 194°
2026-04-26 15:01 50.49981 -4.66460 652 ft 2 kts 159°
2026-04-26 15:01 50.49913 -4.66408 654 ft 15 kts 142°
2026-04-26 15:02 50.49867 -4.66340 650 ft 0 kts 130°
2026-04-26 15:02 50.49867 -4.66339 650 ft 2 kts 130°
2026-04-26 15:03 50.49862 -4.66331 651 ft 3 kts 130°
2026-04-26 15:03 50.49849 -4.66306 649 ft 2 kts 128°
2026-04-26 15:03 50.49836 -4.66281 648 ft 6 kts 130°
2026-04-26 15:03 50.49829 -4.66267 646 ft 0 kts 130°
2026-04-26 15:04 50.49819 -4.66250 647 ft 6 kts 135°
2026-04-26 15:04 50.49799 -4.66240 647 ft 7 kts 216°
2026-04-26 15:04 50.49795 -4.66269 648 ft 0 kts 316°
2026-04-26 15:05 50.49796 -4.66270 648 ft 1 kts 319°
2026-04-26 15:05 50.49798 -4.66274 648 ft 2 kts 320°
2026-04-26 15:05 50.49909 -4.66477 657 ft 52 kts 310°
2026-04-26 15:05 50.50239 -4.67112 731 ft 87 kts 307°
2026-04-26 15:06 50.50628 -4.67828 1105 ft 90 kts 310°
2026-04-26 15:06 50.51067 -4.68584 1497 ft 98 kts 318°
2026-04-26 15:06 50.51684 -4.68932 1905 ft 98 kts
2026-04-26 15:06 50.52290 -4.68457 2316 ft 96 kts 42°
2026-04-26 15:07 50.53181 -4.66817 3069 ft 103 kts 53°
2026-04-26 15:07 50.53617 -4.65932 3464 ft 104 kts 54°
2026-04-26 15:07 50.54076 -4.65067 3816 ft 105 kts 50°
2026-04-26 15:08 50.54582 -4.64156 4043 ft 115 kts 51°
2026-04-26 15:08 50.55089 -4.63181 4451 ft 115 kts 54°
2026-04-26 15:08 50.55598 -4.62189 4827 ft 111 kts 53°
2026-04-26 15:08 50.56066 -4.61281 5130 ft 115 kts 51°
2026-04-26 15:09 50.56115 -4.61189 5156 ft 116 kts 51°
2026-04-26 15:09 50.56307 -4.60824 5225 ft 120 kts 51°
2026-04-26 15:09 50.56829 -4.59802 5506 ft 121 kts 51°
2026-04-26 15:09 50.57355 -4.58763 5843 ft 121 kts 52°
2026-04-26 15:10 50.57880 -4.57718 6153 ft 123 kts 52°
2026-04-26 15:10 50.58228 -4.57014 6360 ft 124 kts 52°
2026-04-26 15:10 50.58941 -4.55587 6770 ft 125 kts 53°
2026-04-26 15:10 50.59456 -4.54492 7047 ft 126 kts 53°
2026-04-26 15:11 50.60004 -4.53394 7270 ft 136 kts 52°
2026-04-26 15:11 50.60635 -4.52157 7287 ft 150 kts 52°
2026-04-26 15:11 50.61298 -4.50831 7253 ft 158 kts 53°
2026-04-26 15:11 50.61986 -4.49447 7256 ft 162 kts 52°
2026-04-26 15:12 50.62688 -4.48030 7249 ft 164 kts 52°
2026-04-26 15:12 50.63390 -4.46616 7252 ft 163 kts 52°
2026-04-26 15:12 50.64082 -4.45221 7246 ft 164 kts 52°
2026-04-26 15:12 50.64782 -4.43802 7259 ft 165 kts 52°
2026-04-26 15:13 50.65490 -4.42374 7250 ft 164 kts 52°
2026-04-26 15:13 50.66190 -4.40948 7245 ft 164 kts 52°
2026-04-26 15:13 50.66886 -4.39536 7253 ft 163 kts 52°
2026-04-26 15:13 50.67579 -4.38129 7252 ft 162 kts 52°
2026-04-26 15:14 50.68038 -4.37196 7253 ft 162 kts 52°
2026-04-26 15:14 50.68959 -4.35316 7258 ft 165 kts 53°
2026-04-26 15:14 50.69671 -4.33870 7251 ft 169 kts 52°
2026-04-26 15:14 50.70157 -4.32890 7253 ft 171 kts 52°
2026-04-26 15:15 50.70890 -4.31396 7253 ft 172 kts 52°
2026-04-26 15:15 50.71622 -4.29895 7256 ft 172 kts 53°
2026-04-26 15:15 50.72354 -4.28397 7244 ft 172 kts 52°
2026-04-26 15:15 50.73310 -4.26425 7247 ft 169 kts 52°
2026-04-26 15:16 50.73791 -4.25433 7252 ft 168 kts 52°
2026-04-26 15:16 50.74501 -4.23967 7249 ft 167 kts 52°
2026-04-26 15:16 50.75208 -4.22512 7252 ft 167 kts 52°
2026-04-26 15:16 50.75908 -4.21063 7252 ft 167 kts 52°
2026-04-26 15:17 50.76614 -4.19601 7249 ft 167 kts 52°
2026-04-26 15:17 50.77078 -4.18636 7252 ft 166 kts 52°
2026-04-26 15:17 50.78045 -4.16725 7251 ft 166 kts 50°
2026-04-26 15:17 50.78771 -4.15315 7247 ft 164 kts 50°
2026-04-26 15:18 50.79490 -4.13917 7251 ft 163 kts 51°
2026-04-26 15:18 50.80209 -4.12520 7248 ft 165 kts 51°
2026-04-26 15:18 50.80938 -4.11108 7246 ft 166 kts 51°
2026-04-26 15:18 50.81671 -4.09690 7241 ft 166 kts 50°
2026-04-26 15:19 50.82397 -4.08286 7248 ft 164 kts 50°
2026-04-26 15:19 50.83108 -4.06905 7246 ft 163 kts 50°
2026-04-26 15:19 50.83821 -4.05518 7247 ft 162 kts 51°
2026-04-26 15:19 50.84530 -4.04141 7260 ft 162 kts 50°
2026-04-26 15:20 50.85251 -4.02743 7255 ft 165 kts 51°
2026-04-26 15:20 50.85986 -4.01330 7254 ft 166 kts 50°
2026-04-26 15:20 50.86720 -3.99913 7254 ft 165 kts 51°
2026-04-26 15:20 50.87444 -3.98508 7247 ft 164 kts 52°
2026-04-26 15:21 50.88135 -3.97104 7250 ft 165 kts 52°
2026-04-26 15:21 50.88838 -3.95660 7256 ft 166 kts 52°
2026-04-26 15:21 50.89544 -3.94203 7261 ft 167 kts 52°
2026-04-26 15:21 50.90252 -3.92734 7245 ft 167 kts 52°
2026-04-26 15:22 50.90950 -3.91272 7249 ft 166 kts 53°
2026-04-26 15:22 50.91649 -3.89822 7257 ft 165 kts 52°
2026-04-26 15:22 50.92343 -3.88388 7257 ft 166 kts 52°
2026-04-26 15:22 50.93044 -3.86931 7267 ft 167 kts 53°
2026-04-26 15:23 50.93752 -3.85446 7257 ft 168 kts 52°
2026-04-26 15:23 50.94466 -3.83973 7249 ft 167 kts 52°
2026-04-26 15:23 50.95175 -3.82514 7264 ft 166 kts 52°
2026-04-26 15:23 50.95877 -3.81066 7259 ft 165 kts 52°
2026-04-26 15:24 50.96576 -3.79621 7257 ft 163 kts 52°
2026-04-26 15:24 50.97264 -3.78195 7259 ft 163 kts 52°
2026-04-26 15:24 50.97950 -3.76766 7261 ft 163 kts 53°
2026-04-26 15:24 50.98626 -3.75360 7259 ft 162 kts 52°
2026-04-26 15:25 50.99311 -3.73933 7263 ft 162 kts 52°
2026-04-26 15:25 50.99765 -3.72981 7265 ft 163 kts 53°
2026-04-26 15:25 51.00685 -3.71055 7260 ft 164 kts 53°
2026-04-26 15:25 51.01385 -3.69617 7256 ft 164 kts 52°
2026-04-26 15:26 51.02088 -3.68187 7254 ft 163 kts 52°
2026-04-26 15:26 51.02791 -3.66765 7257 ft 163 kts 52°
2026-04-26 15:26 51.03496 -3.65340 7254 ft 165 kts 52°
2026-04-26 15:26 51.04191 -3.63933 7274 ft 164 kts 52°
2026-04-26 15:27 51.04901 -3.62500 7270 ft 165 kts 51°
2026-04-26 15:27 51.05612 -3.61061 7263 ft 164 kts 52°
2026-04-26 15:27 51.06315 -3.59634 7269 ft 164 kts 52°
2026-04-26 15:27 51.06978 -3.58291 7252 ft 163 kts 52°
2026-04-26 15:28 51.07687 -3.56860 7268 ft 167 kts 52°
2026-04-26 15:28 51.08405 -3.55417 7264 ft 168 kts 52°
2026-04-26 15:28 51.09122 -3.53968 7268 ft 166 kts 52°
2026-04-26 15:28 51.09837 -3.52523 7267 ft 165 kts 52°
2026-04-26 15:29 51.10543 -3.51090 7266 ft 164 kts 52°
2026-04-26 15:29 51.11252 -3.49655 7266 ft 165 kts 52°
2026-04-26 15:29 51.12665 -3.46813 7270 ft 165 kts 52°
2026-04-26 15:30 51.14091 -3.43941 7271 ft 164 kts 52°
2026-04-26 15:30 51.14797 -3.42517 7270 ft 164 kts 52°
2026-04-26 15:30 51.15502 -3.41093 7275 ft 165 kts 51°
2026-04-26 15:31 51.16216 -3.39645 7272 ft 166 kts 52°
2026-04-26 15:31 51.17657 -3.36729 7276 ft 173 kts 52°
2026-04-26 15:31 51.18381 -3.35173 7272 ft 176 kts 55°
2026-04-26 15:32 51.19551 -3.32473 7269 ft 178 kts 56°
2026-04-26 15:32 51.20486 -3.30295 7270 ft 178 kts 56°
2026-04-26 15:32 51.21186 -3.28666 7269 ft 178 kts 56°
2026-04-26 15:33 51.21875 -3.27065 7268 ft 177 kts 56°
2026-04-26 15:33 51.22580 -3.25444 7268 ft 177 kts 55°
2026-04-26 15:33 51.23295 -3.23838 7271 ft 177 kts 55°
2026-04-26 15:33 51.24012 -3.22229 7266 ft 177 kts 55°
2026-04-26 15:34 51.24729 -3.20623 7269 ft 177 kts 55°
2026-04-26 15:34 51.25446 -3.19017 7270 ft 177 kts 55°
2026-04-26 15:34 51.26152 -3.17431 7266 ft 177 kts 55°
2026-04-26 15:34 51.26867 -3.15823 7268 ft 177 kts 55°
2026-04-26 15:35 51.27581 -3.14217 7270 ft 177 kts 55°
2026-04-26 15:35 51.28294 -3.12616 7273 ft 177 kts 55°
2026-04-26 15:35 51.29009 -3.11012 7270 ft 177 kts 55°
2026-04-26 15:35 51.29713 -3.09432 7269 ft 177 kts 55°
2026-04-26 15:36 51.30426 -3.07835 7267 ft 177 kts 55°
2026-04-26 15:36 51.31140 -3.06232 7270 ft 177 kts 55°
2026-04-26 15:36 51.31853 -3.04632 7271 ft 177 kts 55°
2026-04-26 15:36 51.32566 -3.03029 7271 ft 177 kts 55°
2026-04-26 15:37 51.33272 -3.01443 7270 ft 177 kts 55°
2026-04-26 15:37 51.33987 -2.99839 7272 ft 177 kts 55°
2026-04-26 15:37 51.34701 -2.98242 7271 ft 177 kts 55°
2026-04-26 15:37 51.35418 -2.96629 7267 ft 178 kts 55°
2026-04-26 15:38 51.36139 -2.95006 7272 ft 178 kts 55°
2026-04-26 15:38 51.36859 -2.93390 7270 ft 178 kts 55°
2026-04-26 15:38 51.37582 -2.91774 7269 ft 178 kts 55°
2026-04-26 15:38 51.38305 -2.90155 7274 ft 179 kts 55°
2026-04-26 15:39 51.39032 -2.88533 7268 ft 179 kts 55°
2026-04-26 15:39 51.39754 -2.86917 7267 ft 178 kts 55°
2026-04-26 15:39 51.40465 -2.85320 7239 ft 179 kts 55°
2026-04-26 15:39 51.40962 -2.84192 7096 ft 187 kts 56°
2026-04-26 15:40 51.41955 -2.81887 6834 ft 192 kts 56°
2026-04-26 15:40 51.42715 -2.80108 6642 ft 194 kts 56°
2026-04-26 15:40 51.43482 -2.78316 6438 ft 195 kts 56°
2026-04-26 15:40 51.44216 -2.76487 6216 ft 194 kts 65°
2026-04-26 15:41 51.44633 -2.74444 6032 ft 192 kts 75°
2026-04-26 15:41 51.44969 -2.72449 6017 ft 183 kts 76°
2026-04-26 15:41 51.45308 -2.70496 6009 ft 179 kts 75°
2026-04-26 15:41 51.45651 -2.68592 6014 ft 176 kts 75°
2026-04-26 15:42 51.45989 -2.66718 6013 ft 175 kts 75°
2026-04-26 15:42 51.46327 -2.64840 6014 ft 174 kts 75°
2026-04-26 15:42 51.46659 -2.62978 6014 ft 173 kts 75°
2026-04-26 15:42 51.46991 -2.61124 6018 ft 173 kts 75°
2026-04-26 15:43 51.47308 -2.59266 6015 ft 173 kts 76°
2026-04-26 15:43 51.47618 -2.57405 6017 ft 172 kts 76°
2026-04-26 15:43 51.48245 -2.53709 6016 ft 174 kts 75°
2026-04-26 15:44 51.48593 -2.51848 6017 ft 174 kts 74°
2026-04-26 15:44 51.49297 -2.48143 6019 ft 173 kts 74°
2026-04-26 15:44 51.49635 -2.46293 6022 ft 172 kts 75°
2026-04-26 15:45 51.50295 -2.42600 6023 ft 172 kts 75°
2026-04-26 15:45 51.50623 -2.40761 6025 ft 172 kts 75°
2026-04-26 15:46 51.51247 -2.37108 5688 ft 166 kts 76°
2026-04-26 15:46 51.51558 -2.35340 5498 ft 164 kts 74°
2026-04-26 15:46 51.51881 -2.33594 5283 ft 164 kts 74°
2026-04-26 15:46 51.52105 -2.32409 5134 ft 164 kts 74°
2026-04-26 15:47 51.52501 -2.30110 4860 ft 160 kts 78°
2026-04-26 15:47 51.53082 -2.26760 4686 ft 152 kts 73°
2026-04-26 15:47 51.53364 -2.25110 4486 ft 157 kts 79°
2026-04-26 15:48 51.53632 -2.23401 4287 ft 158 kts 77°
2026-04-26 15:48 51.53920 -2.21698 4143 ft 156 kts 76°
2026-04-26 15:48 51.54214 -2.20023 4022 ft 156 kts 76°
2026-04-26 15:48 51.54522 -2.18334 3802 ft 158 kts 76°
2026-04-26 15:49 51.54823 -2.16639 3602 ft 157 kts 76°
2026-04-26 15:49 51.55144 -2.14966 3482 ft 155 kts 73°
2026-04-26 15:49 51.55447 -2.13268 3228 ft 160 kts 77°
2026-04-26 15:49 51.55717 -2.11524 2960 ft 160 kts 77°
2026-04-26 15:50 51.56020 -2.09817 2691 ft 158 kts 76°
2026-04-26 15:50 51.56306 -2.08168 2542 ft 152 kts 76°
2026-04-26 15:50 51.56601 -2.06548 2507 ft 149 kts 76°
2026-04-26 15:50 51.56880 -2.04966 2508 ft 144 kts 75°
2026-04-26 15:51 51.57149 -2.03423 2512 ft 143 kts 77°
2026-04-26 15:51 51.57419 -2.01873 2513 ft 145 kts 76°
2026-04-26 15:51 51.57678 -2.00318 2521 ft 144 kts 78°
2026-04-26 15:51 51.57933 -1.98768 2557 ft 144 kts 76°
2026-04-26 15:52 51.58228 -1.97219 2522 ft 148 kts 77°
2026-04-26 15:52 51.58489 -1.95660 2528 ft 145 kts 78°
2026-04-26 15:52 51.58750 -1.94094 2531 ft 145 kts 77°
2026-04-26 15:52 51.58941 -1.93023 2533 ft 149 kts 74°
2026-04-26 15:53 51.59307 -1.90886 2515 ft 147 kts 77°
2026-04-26 15:53 51.59590 -1.89315 2509 ft 145 kts 75°
2026-04-26 15:53 51.59869 -1.87744 2489 ft 145 kts 77°
2026-04-26 15:53 51.60125 -1.86152 2470 ft 146 kts 77°
2026-04-26 15:54 51.60365 -1.84548 2477 ft 147 kts 78°
2026-04-26 15:54 51.60872 -1.83181 2457 ft 151 kts 31°
2026-04-26 15:54 51.61857 -1.82649 2505 ft 152 kts 16°
2026-04-26 15:54 51.62926 -1.82557 2473 ft 158 kts 354°
2026-04-26 15:55 51.64012 -1.82736 2448 ft 152 kts 354°
2026-04-26 15:55 51.65050 -1.82914 2456 ft 149 kts 354°
2026-04-26 15:55 51.66093 -1.83031 2382 ft 146 kts 357°
2026-04-26 15:55 51.67066 -1.83093 2412 ft 139 kts 358°
2026-04-26 15:56 51.68016 -1.83289 2404 ft 138 kts 338°
2026-04-26 15:56 51.68673 -1.84350 2345 ft 136 kts 288°
2026-04-26 15:56 51.68801 -1.85893 2128 ft 143 kts 265°
2026-04-26 15:56 51.68699 -1.87503 1944 ft 145 kts 260°
2026-04-26 15:57 51.68567 -1.89075 1837 ft 138 kts 260°
2026-04-26 15:57 51.68438 -1.90567 1807 ft 132 kts 261°
2026-04-26 15:57 51.68322 -1.92015 1796 ft 128 kts 258°
2026-04-26 15:57 51.68232 -1.92932 1750 ft 120 kts 258°
2026-04-26 15:58 51.68054 -1.94564 1652 ft 108 kts 255°
2026-04-26 15:58 51.67916 -1.95718 1547 ft 104 kts 254°
2026-04-26 15:58 51.67775 -1.96839 1451 ft 102 kts 255°
2026-04-26 15:58 51.67612 -1.97971 1314 ft 105 kts 255°
2026-04-26 15:59 51.67506 -1.99158 1147 ft 108 kts 262°
2026-04-26 15:59 51.67367 -2.00327 1000 ft 107 kts 256°
2026-04-26 15:59 51.67246 -2.01522 1243 ft 112 kts 256°
2026-04-26 15:59 51.67114 -2.02770 1625 ft 114 kts 257°
2026-04-26 16:00 51.66974 -2.04030 2027 ft 115 kts 257°
2026-04-26 16:00 51.66840 -2.05285 2438 ft 115 kts 251°
2026-04-26 16:00 51.66617 -2.06621 2572 ft 132 kts 256°
2026-04-26 16:00 51.66493 -2.07608 2576 ft 138 kts 256°
2026-04-26 16:01 51.66165 -2.09051 2583 ft 135 kts 231°
2026-04-26 16:01 51.65127 -2.09780 2517 ft 124 kts 168°
2026-04-26 16:01 51.64630 -2.09328 2594 ft 121 kts 134°
2026-04-26 16:01 51.64263 -2.08127 2589 ft 126 kts 109°
2026-04-26 16:02 51.64043 -2.06693 2483 ft 134 kts 106°
2026-04-26 16:02 51.63830 -2.05226 2483 ft 134 kts 103°
2026-04-26 16:02 51.63623 -2.03763 2517 ft 133 kts 103°
2026-04-26 16:02 51.63495 -2.02797 2517 ft 135 kts 103°
2026-04-26 16:03 51.63264 -2.00930 2472 ft 140 kts 104°
2026-04-26 16:03 51.63032 -1.99426 2448 ft 136 kts 105°
2026-04-26 16:03 51.62785 -1.97929 2271 ft 145 kts 109°
2026-04-26 16:03 51.62590 -1.96374 2397 ft 136 kts 103°
2026-04-26 16:04 51.62430 -1.94910 2490 ft 134 kts 102°
2026-04-26 16:04 51.62243 -1.93419 2464 ft 134 kts 103°
2026-04-26 16:04 51.62071 -1.91962 2510 ft 131 kts 105°
2026-04-26 16:04 51.61892 -1.90534 2505 ft 130 kts 103°
2026-04-26 16:05 51.61698 -1.89128 2518 ft 129 kts 105°
2026-04-26 16:05 51.61529 -1.87686 2500 ft 132 kts 104°
2026-04-26 16:05 51.61375 -1.86251 2480 ft 129 kts 104°
2026-04-26 16:05 51.61261 -1.84851 2525 ft 126 kts 102°
2026-04-26 16:06 51.61464 -1.83474 2506 ft 137 kts 59°
2026-04-26 16:06 51.62233 -1.82604 2502 ft 141 kts 16°
2026-04-26 16:06 51.63226 -1.82436 2437 ft 143 kts
2026-04-26 16:06 51.64201 -1.82369 2390 ft 138 kts
2026-04-26 16:07 51.65148 -1.82471 2444 ft 137 kts 356°
2026-04-26 16:07 51.66098 -1.82652 2417 ft 138 kts 352°
2026-04-26 16:07 51.67035 -1.82860 2426 ft 135 kts 350°
2026-04-26 16:07 51.67923 -1.83375 2347 ft 135 kts 320°
2026-04-26 16:08 51.68390 -1.84600 2356 ft 127 kts 277°
2026-04-26 16:08 51.68498 -1.85998 2252 ft 128 kts 265°
2026-04-26 16:08 51.68466 -1.87472 2058 ft 133 kts 268°
2026-04-26 16:08 51.68441 -1.88969 1905 ft 132 kts 264°
2026-04-26 16:09 51.68381 -1.90435 1832 ft 129 kts 264°
2026-04-26 16:09 51.68290 -1.91848 1803 ft 127 kts 260°
2026-04-26 16:09 51.68195 -1.93238 1799 ft 120 kts 261°
2026-04-26 16:09 51.68058 -1.94505 1679 ft 114 kts 258°
2026-04-26 16:10 51.67919 -1.95738 1520 ft 110 kts 255°
2026-04-26 16:10 51.67787 -1.96935 1387 ft 107 kts 258°
2026-04-26 16:10 51.67666 -1.98085 1282 ft 99 kts 263°
2026-04-26 16:10 51.67542 -1.99172 1132 ft 102 kts 261°
2026-04-26 16:11 51.67377 -2.00284 964 ft 104 kts 258°
2026-04-26 16:11 51.67284 -2.01357 1105 ft 96 kts 266°
2026-04-26 16:11 51.67185 -2.02416 1212 ft 94 kts 258°
2026-04-26 16:11 51.67023 -2.03484 1242 ft 104 kts 263°
2026-04-26 16:12 51.66920 -2.04689 1237 ft 110 kts 260°
2026-04-26 16:12 51.66791 -2.05913 1260 ft 111 kts 259°
2026-04-26 16:12 51.65952 -2.07534 1306 ft 101 kts 175°
2026-04-26 16:13 51.65303 -2.07375 1475 ft 91 kts 175°
2026-04-26 16:13 51.64746 -2.06894 1462 ft 100 kts 122°
2026-04-26 16:13 51.64681 -2.05754 1457 ft 106 kts 89°
2026-04-26 16:13 51.64744 -2.04569 1488 ft 105 kts 90°
2026-04-26 16:14 51.64833 -2.03397 1429 ft 112 kts 88°
2026-04-26 16:14 51.64955 -2.02170 1527 ft 109 kts 85°
2026-04-26 16:14 51.65428 -1.99787 1393 ft 125 kts 40°
2026-04-26 16:15 51.66267 -1.99546 1220 ft 125 kts 352°
2026-04-26 16:15 51.67062 -1.99870 1080 ft 107 kts 325°
2026-04-26 16:15 51.67319 -2.00859 929 ft 98 kts 268°
2026-04-26 16:16 51.67115 -2.02944 675 ft 89 kts 260°
2026-04-26 16:16 51.66994 -2.03917 544 ft 87 kts 259°
2026-04-26 16:16 51.66897 -2.04861 418 ft 79 kts 256°
2026-04-26 16:16 51.66825 -2.05472 422 ft 30 kts 265°
2026-04-26 16:17 51.66806 -2.05694 425 ft 17 kts 260°
2026-04-26 16:17 51.66793 -2.05952 425 ft 18 kts 297°
2026-04-26 16:17 51.66849 -2.06095 426 ft 14 kts 296°
2026-04-26 16:17 51.66900 -2.06229 428 ft 14 kts 293°
2026-04-26 16:18 51.66891 -2.06270 430 ft 0 kts 76°